Main page
METAR-TAF:

METAR-TAF

Airports :

Reykjavík Airport

Reykjavík, Iceland

latitude: 64-08N, longitude: 021-54W, elevation: 54 m

Current weather observation

The report was made 25 minutes ago, at 06:00 UTC
Wind 10 kt from the East/Northeast
Temperature 5°C
Humidity 56%
Pressure 1010 hPa
Visibility 10 km or more
no clouds below 1500 m and no cumulonimbus

METAR: BIRK 150600Z 07010KT CAVOK 05/M03 Q1010

Time: 06:25 (06:25 UTC)

Forecast

The report was made 2 hours and 10 minutes ago, at 04:15 UTC
Forecast valid from 15 at 06 UTC to 16 at 06 UTC
Wind 11 kt from the East
Visibility 10 km or more
Few clouds at a height of 3000 ft
Scattered clouds at a height of 5000 ft
Becoming
from 15 at 22 UTC to 16 at 00 UTC
Wind 18 kt from the North/Northeast

TAF: BIRK 150415Z 1506/1606 08011KT 9999 FEW030 SCT050 TX09/1518Z TN04/1506Z BECMG 1522/1600 02018KT

Weather observations and forecasts of more than 4000 airports (METAR and TAF reports).

The available stations are represented by yellow and red dots on the map.

Hover mouse over dot to see the name of the station.

Then click to see weather observations and forecasts.

To change the map : click on the green buttons with a black cross to zoom in, on the green button with a dash to zoom out, or on the green arrows for adjacent maps.


METAR-TAF: